createdAt,value
2019-03-20T00:00:33.752Z,6.66
2019-03-20T00:03:05.316Z,6.63
2019-03-20T00:05:36.536Z,6.59
2019-03-20T00:08:07.718Z,6.58
2019-03-20T00:10:38.966Z,6.54
2019-03-20T00:13:10.172Z,6.54
2019-03-20T00:15:41.423Z,6.51
2019-03-20T00:18:12.624Z,6.51
2019-03-20T00:20:43.843Z,6.49
2019-03-20T00:23:14.951Z,6.48
2019-03-20T00:25:46.118Z,6.47
2019-03-20T00:28:17.282Z,6.44
2019-03-20T00:30:48.420Z,6.42
2019-03-20T00:33:20.201Z,6.38
2019-03-20T00:35:51.542Z,6.33
2019-03-20T00:38:22.766Z,6.30
2019-03-20T00:40:53.960Z,6.28
2019-03-20T00:43:25.110Z,6.23
2019-03-20T00:45:56.302Z,6.20
2019-03-20T00:48:27.976Z,6.15
2019-03-20T00:51:00.293Z,6.12
2019-03-20T00:53:31.581Z,6.08
2019-03-20T00:56:02.781Z,6.05
2019-03-20T00:58:34.023Z,6.02
2019-03-20T01:01:05.204Z,5.97
2019-03-20T01:03:36.432Z,5.93
2019-03-20T01:06:07.604Z,5.88
2019-03-20T01:08:38.815Z,5.82
2019-03-20T01:11:09.993Z,5.79
2019-03-20T01:13:41.230Z,5.77
2019-03-20T01:16:13.374Z,5.78
2019-03-20T01:18:44.589Z,5.75
2019-03-20T01:21:15.727Z,5.76
2019-03-20T01:23:46.972Z,5.73
2019-03-20T01:26:18.109Z,5.69
2019-03-20T01:28:49.304Z,5.64
2019-03-20T01:31:21.574Z,5.61
2019-03-20T01:33:54.886Z,5.58
2019-03-20T01:36:25.574Z,5.54
2019-03-20T01:38:56.839Z,5.50
2019-03-20T01:41:37.643Z,5.48
2019-03-20T01:44:00.990Z,5.45
2019-03-20T01:46:32.194Z,5.42
2019-03-20T01:49:03.339Z,5.42
2019-03-20T01:51:34.499Z,5.42
2019-03-20T01:54:05.682Z,5.41
2019-03-20T01:56:37.043Z,5.41
2019-03-20T01:59:08.319Z,5.40
2019-03-20T02:01:39.588Z,5.39
2019-03-20T02:04:10.824Z,5.37
2019-03-20T02:06:41.974Z,5.38
2019-03-20T02:09:13.173Z,5.35
2019-03-20T02:11:44.332Z,5.34
2019-03-20T02:14:15.527Z,5.35
2019-03-20T02:16:46.735Z,5.33
2019-03-20T02:19:17.914Z,5.31
2019-03-20T02:21:49.233Z,5.30
2019-03-20T02:24:20.367Z,5.29
2019-03-20T02:26:51.567Z,5.29
2019-03-20T02:29:22.864Z,5.28
2019-03-20T02:31:54.025Z,5.28
2019-03-20T02:34:25.226Z,5.26
2019-03-20T02:36:56.424Z,5.25
2019-03-20T02:39:27.605Z,5.25
2019-03-20T02:41:58.773Z,5.23
2019-03-20T02:44:30.012Z,5.20
2019-03-20T02:47:01.189Z,5.13
2019-03-20T02:49:32.354Z,5.04
2019-03-20T02:52:04.251Z,4.99
2019-03-20T02:54:35.695Z,4.93
2019-03-20T02:57:06.966Z,4.87
2019-03-20T02:59:38.121Z,4.84
2019-03-20T03:02:10.393Z,4.79
2019-03-20T03:04:41.590Z,4.79
2019-03-20T03:07:12.839Z,4.78
2019-03-20T03:09:44.092Z,4.78
2019-03-20T03:12:15.320Z,4.85
2019-03-20T03:14:46.541Z,4.87
2019-03-20T03:17:17.857Z,4.91
2019-03-20T03:19:49.067Z,4.92
2019-03-20T03:22:20.218Z,4.94
2019-03-20T03:24:51.510Z,4.95
2019-03-20T03:27:23.636Z,4.96
2019-03-20T03:29:54.915Z,4.95
2019-03-20T03:32:26.106Z,4.96
2019-03-20T03:34:57.304Z,4.95
2019-03-20T03:37:28.512Z,4.93
2019-03-20T03:39:59.682Z,4.94
2019-03-20T03:42:30.948Z,4.94
2019-03-20T03:45:02.100Z,4.93
2019-03-20T03:47:34.375Z,4.92
2019-03-20T03:50:06.012Z,4.92
2019-03-20T03:52:37.329Z,4.91
2019-03-20T03:55:08.619Z,4.90
2019-03-20T03:57:39.778Z,4.90
2019-03-20T04:00:12.722Z,4.87
2019-03-20T04:02:43.945Z,4.86
2019-03-20T04:05:15.632Z,4.85
2019-03-20T04:07:47.015Z,4.77
2019-03-20T04:10:18.271Z,4.76
2019-03-20T04:12:49.492Z,4.71
2019-03-20T04:15:20.774Z,4.68
2019-03-20T04:17:51.949Z,4.63
2019-03-20T04:20:23.077Z,4.61
2019-03-20T04:22:54.263Z,4.59
2019-03-20T04:25:25.417Z,4.60
2019-03-20T04:27:59.168Z,4.57
2019-03-20T04:30:30.412Z,4.56
2019-03-20T04:33:01.706Z,4.50
2019-03-20T04:35:32.933Z,4.52
2019-03-20T04:38:04.185Z,4.41
2019-03-20T04:40:35.308Z,4.41
2019-03-20T04:43:06.486Z,4.46
2019-03-20T04:45:37.755Z,4.46
2019-03-20T04:48:08.953Z,4.46
2019-03-20T04:50:40.214Z,4.41
2019-03-20T04:53:11.395Z,4.45
2019-03-20T04:55:42.560Z,4.42
2019-03-20T04:58:14.823Z,4.43
2019-03-20T05:00:45.991Z,4.41
2019-03-20T05:03:17.264Z,4.42
2019-03-20T05:05:48.448Z,4.41
2019-03-20T05:08:19.761Z,4.43
2019-03-20T05:10:50.916Z,4.37
2019-03-20T05:13:22.143Z,4.39
2019-03-20T05:15:54.443Z,4.38
2019-03-20T05:18:25.822Z,4.38
2019-03-20T05:20:56.972Z,4.39
2019-03-20T05:23:29.023Z,4.37
2019-03-20T05:26:02.999Z,4.40
2019-03-20T05:28:34.995Z,4.41
2019-03-20T05:31:06.181Z,4.42
2019-03-20T05:33:37.382Z,4.42
2019-03-20T05:36:09.109Z,4.44
2019-03-20T05:38:40.343Z,4.45
2019-03-20T05:41:11.547Z,4.45
2019-03-20T05:43:42.660Z,4.47
2019-03-20T05:46:14.925Z,4.47
2019-03-20T05:48:46.095Z,4.48
2019-03-20T05:51:17.289Z,4.49
2019-03-20T05:53:49.649Z,4.50
2019-03-20T05:56:20.824Z,4.51
2019-03-20T05:58:52.002Z,4.54
2019-03-20T06:01:23.238Z,4.55
2019-03-20T06:03:54.520Z,4.56
2019-03-20T06:06:26.821Z,4.58
2019-03-20T06:08:58.012Z,4.59
2019-03-20T06:11:29.300Z,4.60
2019-03-20T06:14:00.494Z,4.62
2019-03-20T06:16:31.738Z,4.62
2019-03-20T06:19:02.920Z,4.63
2019-03-20T06:21:34.128Z,4.64
2019-03-20T06:24:05.332Z,4.65
2019-03-20T06:26:36.537Z,4.68
2019-03-20T06:29:07.781Z,4.72
2019-03-20T06:31:39.033Z,4.75
2019-03-20T06:34:10.174Z,4.78
2019-03-20T06:36:41.309Z,4.81
2019-03-20T06:39:12.580Z,4.85
2019-03-20T06:41:43.810Z,4.88
2019-03-20T06:44:15.021Z,4.89
2019-03-20T06:46:46.154Z,4.93
2019-03-20T06:49:17.368Z,4.96
2019-03-20T06:51:48.622Z,4.98
2019-03-20T06:54:19.941Z,5.01
2019-03-20T06:56:51.151Z,5.04
2019-03-20T07:00:11.820Z,5.10
2019-03-20T07:02:45.725Z,5.13
2019-03-20T07:06:01.891Z,5.19
2019-03-20T07:08:37.244Z,5.24
2019-03-20T07:11:08.424Z,5.29
2019-03-20T07:13:39.981Z,5.33
2019-03-20T07:16:11.340Z,5.36
2019-03-20T07:18:43.730Z,5.41
2019-03-20T07:21:14.414Z,5.47
2019-03-20T07:23:45.727Z,5.52
2019-03-20T07:26:16.976Z,5.58
2019-03-20T07:28:48.163Z,5.64
2019-03-20T07:31:19.387Z,5.70
2019-03-20T07:33:50.686Z,5.77
2019-03-20T07:36:22.164Z,5.83
2019-03-20T07:38:53.324Z,5.89
2019-03-20T07:41:24.520Z,5.95
2019-03-20T07:43:55.770Z,6.02
2019-03-20T07:46:26.968Z,6.09
2019-03-20T07:48:58.260Z,6.17
2019-03-20T07:51:29.664Z,6.25
2019-03-20T07:54:00.955Z,6.33
2019-03-20T07:56:32.233Z,6.42
2019-03-20T07:59:03.396Z,6.50
2019-03-20T08:01:34.607Z,6.58
2019-03-20T08:04:06.953Z,6.67
2019-03-20T08:06:38.118Z,6.78
2019-03-20T08:09:09.326Z,6.86
2019-03-20T08:11:40.509Z,6.96
2019-03-20T08:14:11.700Z,7.05
2019-03-20T08:16:42.962Z,7.16
2019-03-20T08:19:14.227Z,7.25
2019-03-20T08:21:45.480Z,7.37
2019-03-20T08:24:16.669Z,7.47
2019-03-20T08:26:47.908Z,7.57
2019-03-20T08:29:19.128Z,7.66
2019-03-20T08:31:50.359Z,7.77
2019-03-20T08:34:21.539Z,7.88
2019-03-20T08:36:52.691Z,7.98
2019-03-20T08:39:23.867Z,8.10
2019-03-20T08:41:55.138Z,8.20
2019-03-20T08:44:26.326Z,8.31
2019-03-20T08:46:57.491Z,8.42
2019-03-20T08:49:28.773Z,8.51
2019-03-20T08:51:59.899Z,8.59
2019-03-20T08:54:31.049Z,8.67
2019-03-20T08:57:03.223Z,8.74
2019-03-20T08:59:34.467Z,8.82
2019-03-20T09:02:05.748Z,8.89
2019-03-20T09:04:36.970Z,8.97
2019-03-20T09:07:08.281Z,9.03
2019-03-20T09:09:39.519Z,9.11
2019-03-20T09:12:10.780Z,9.17
2019-03-20T09:14:41.981Z,9.25
2019-03-20T09:17:13.159Z,9.33
2019-03-20T09:19:44.534Z,9.38
2019-03-20T09:22:15.738Z,9.44
2019-03-20T09:24:46.950Z,9.51
2019-03-20T09:27:19.161Z,9.60
2019-03-20T09:29:50.390Z,9.68
2019-03-20T09:32:21.693Z,9.74
2019-03-20T09:34:52.984Z,9.81
2019-03-20T09:37:24.210Z,9.89
2019-03-20T09:39:55.372Z,9.96
2019-03-20T09:42:26.718Z,10.03
2019-03-20T09:44:57.890Z,10.10
2019-03-20T09:47:29.140Z,10.16
2019-03-20T09:50:00.388Z,10.24
2019-03-20T09:52:31.628Z,10.31
2019-03-20T09:55:03.456Z,10.37
2019-03-20T09:57:35.296Z,10.44
2019-03-20T10:00:13.063Z,10.51
2019-03-20T10:02:44.511Z,10.56
2019-03-20T10:05:15.962Z,10.59
2019-03-20T10:07:47.073Z,10.64
2019-03-20T10:10:19.653Z,10.68
2019-03-20T10:12:50.921Z,10.75
2019-03-20T10:15:22.140Z,10.82
2019-03-20T10:17:53.449Z,10.89
2019-03-20T10:20:24.654Z,10.97
2019-03-20T10:22:55.924Z,11.03
2019-03-20T10:25:27.180Z,11.12
2019-03-20T10:27:58.461Z,11.21
2019-03-20T10:30:29.968Z,11.31
2019-03-20T10:33:01.213Z,11.36
2019-03-20T10:35:32.667Z,11.43
2019-03-20T10:38:03.898Z,11.46
2019-03-20T10:40:36.457Z,11.53
2019-03-20T10:43:07.730Z,11.58
2019-03-20T10:45:39.224Z,11.60
2019-03-20T10:48:11.602Z,11.63
2019-03-20T10:50:42.873Z,11.64
2019-03-20T10:53:14.139Z,11.67
2019-03-20T10:55:45.435Z,11.68
2019-03-20T10:58:16.723Z,11.69
2019-03-20T11:00:47.970Z,11.70
2019-03-20T11:03:19.336Z,11.75
2019-03-20T11:05:50.626Z,11.81
2019-03-20T11:08:22.087Z,11.88
2019-03-20T11:10:53.580Z,11.92
2019-03-20T11:13:24.918Z,11.99
2019-03-20T11:15:56.199Z,12.06
2019-03-20T11:18:27.483Z,12.11
2019-03-20T11:20:58.799Z,12.18
2019-03-20T11:23:30.034Z,12.24
2019-03-20T11:26:01.413Z,12.28
2019-03-20T11:28:32.911Z,12.35
2019-03-20T11:31:04.463Z,12.43
2019-03-20T11:33:36.113Z,12.51
2019-03-20T11:36:07.374Z,12.56
2019-03-20T11:38:38.601Z,12.64
2019-03-20T11:41:10.041Z,12.72
2019-03-20T11:43:41.375Z,12.81
2019-03-20T11:46:12.752Z,12.85
2019-03-20T11:48:44.061Z,12.86
2019-03-20T11:51:15.508Z,12.87
2019-03-20T11:53:46.774Z,12.93
2019-03-20T11:56:17.979Z,12.94
2019-03-20T11:58:49.344Z,12.93
2019-03-20T12:01:22.827Z,12.96
2019-03-20T12:03:55.015Z,12.98
2019-03-20T12:06:26.190Z,12.96
2019-03-20T12:08:58.339Z,12.99
2019-03-20T12:11:29.528Z,13.04
2019-03-20T12:14:00.701Z,13.04
2019-03-20T12:16:32.093Z,13.06
2019-03-20T12:19:03.341Z,13.12
2019-03-20T12:21:34.622Z,13.21
2019-03-20T12:24:05.927Z,13.25
2019-03-20T12:26:37.100Z,13.26
2019-03-20T12:29:08.394Z,13.32
2019-03-20T12:31:39.596Z,13.42
2019-03-20T12:34:10.824Z,13.56
2019-03-20T12:36:42.026Z,13.68
2019-03-20T12:39:13.323Z,13.80
2019-03-20T12:41:44.498Z,13.89
2019-03-20T12:44:15.799Z,13.97
2019-03-20T12:49:50.614Z,14.02
2019-03-20T12:52:21.985Z,14.12
2019-03-20T12:54:56.127Z,14.22
2019-03-20T12:57:27.488Z,14.44
2019-03-20T12:59:58.849Z,14.78
2019-03-20T13:02:30.140Z,15.11
2019-03-20T13:05:01.411Z,15.57
2019-03-20T13:07:32.576Z,15.99
2019-03-20T13:10:05.378Z,16.17
2019-03-20T13:12:36.563Z,16.15
2019-03-20T13:15:09.251Z,16.12
2019-03-20T13:17:40.395Z,16.14
2019-03-20T13:20:11.695Z,16.08
2019-03-20T13:22:42.927Z,16.05
2019-03-20T13:25:14.310Z,16.05
2019-03-20T13:27:45.526Z,16.22
2019-03-20T13:30:28.324Z,16.55
2019-03-20T13:32:59.552Z,16.98
2019-03-20T13:35:31.889Z,17.41
2019-03-20T13:38:03.118Z,17.79
2019-03-20T13:40:35.407Z,18.17
2019-03-20T13:43:07.178Z,18.52
2019-03-20T13:45:38.689Z,18.76
2019-03-20T13:48:10.329Z,19.16
2019-03-20T13:50:43.031Z,19.71
2019-03-20T13:53:15.473Z,20.28
2019-03-20T13:55:47.004Z,20.82
2019-03-20T13:58:18.707Z,21.24
2019-03-20T14:00:50.418Z,21.58
2019-03-20T14:03:21.780Z,21.65
2019-03-20T14:05:53.646Z,21.91
2019-03-20T14:08:25.266Z,22.23
2019-03-20T14:10:56.500Z,22.50
2019-03-20T14:13:30.522Z,22.81
2019-03-20T14:16:02.743Z,23.13
2019-03-20T14:18:34.045Z,23.48
2019-03-20T14:21:05.305Z,23.65
2019-03-20T14:23:36.505Z,23.91
2019-03-20T14:26:07.729Z,24.19
2019-03-20T14:28:38.865Z,24.37
2019-03-20T14:31:10.127Z,24.54
2019-03-20T14:33:41.328Z,24.71
2019-03-20T14:36:12.555Z,24.89
2019-03-20T14:38:43.790Z,25.13
2019-03-20T14:41:21.635Z,25.32
2019-03-20T14:43:47.921Z,25.40
2019-03-20T14:46:19.117Z,25.29
2019-03-20T14:48:50.316Z,25.19
2019-03-20T14:51:21.529Z,25.13
2019-03-20T14:53:52.708Z,24.92
2019-03-20T14:56:23.970Z,24.41
2019-03-20T14:58:55.153Z,23.68
2019-03-20T15:01:26.356Z,23.08
2019-03-20T15:03:57.593Z,22.39
2019-03-20T15:06:28.891Z,21.55
2019-03-20T15:09:00.239Z,20.74
2019-03-20T15:11:31.695Z,20.09
2019-03-20T15:14:02.947Z,19.54
2019-03-20T15:16:34.135Z,19.14
2019-03-20T15:19:07.051Z,18.75
2019-03-20T15:21:38.439Z,18.33
2019-03-20T15:24:09.661Z,17.86
2019-03-20T15:26:42.026Z,17.45
2019-03-20T15:29:13.347Z,17.08
2019-03-20T15:31:44.688Z,16.82
2019-03-20T15:34:16.401Z,16.55
2019-03-20T15:36:47.693Z,16.37
2019-03-20T15:39:18.950Z,16.17
2019-03-20T15:41:50.491Z,15.96
2019-03-20T15:44:22.030Z,15.79
2019-03-20T15:46:53.397Z,15.65
2019-03-20T15:49:24.717Z,15.54
2019-03-20T15:51:56.985Z,15.42
2019-03-20T15:54:28.346Z,15.31
2019-03-20T15:56:59.572Z,15.20
2019-03-20T15:59:31.151Z,15.07
2019-03-20T16:02:02.748Z,14.95
2019-03-20T16:04:34.952Z,14.81
2019-03-20T16:07:06.175Z,14.68
2019-03-20T16:09:37.417Z,14.61
2019-03-20T16:12:08.706Z,14.53
2019-03-20T16:14:40.137Z,14.44
2019-03-20T16:17:11.569Z,14.38
2019-03-20T16:19:42.778Z,14.32
2019-03-20T16:22:14.028Z,14.29
2019-03-20T16:24:45.312Z,14.24
2019-03-20T16:27:16.434Z,14.19
2019-03-20T16:29:47.725Z,14.12
2019-03-20T16:32:18.951Z,14.08
2019-03-20T16:34:50.270Z,14.03
2019-03-20T16:37:21.687Z,13.94
2019-03-20T16:39:53.011Z,13.86
2019-03-20T16:42:24.415Z,13.82
2019-03-20T16:44:55.731Z,13.80
2019-03-20T16:47:27.040Z,13.77
2019-03-20T16:49:58.279Z,13.74
2019-03-20T16:52:29.481Z,13.71
2019-03-20T16:55:00.662Z,13.69
2019-03-20T16:57:31.817Z,13.69
2019-03-20T17:00:03.135Z,13.70
2019-03-20T17:02:34.364Z,13.72
2019-03-20T17:05:05.929Z,13.74
2019-03-20T17:07:37.248Z,13.74
2019-03-20T17:10:15.182Z,13.73
2019-03-20T17:12:46.380Z,13.70
2019-03-20T17:15:24.644Z,13.65
2019-03-20T17:17:55.857Z,13.63
2019-03-20T17:20:27.049Z,13.59
2019-03-20T17:22:58.249Z,13.58
2019-03-20T17:25:29.495Z,13.56
2019-03-20T17:28:00.849Z,13.56
2019-03-20T17:30:36.025Z,13.56
2019-03-20T17:33:07.323Z,13.52
2019-03-20T17:35:38.716Z,13.52
2019-03-20T17:38:10.114Z,13.49
2019-03-20T17:40:41.446Z,13.45
2019-03-20T17:43:12.689Z,13.41
2019-03-20T17:45:43.904Z,13.38
2019-03-20T17:48:15.219Z,13.36
2019-03-20T17:50:46.514Z,13.34
2019-03-20T17:53:18.152Z,13.32
2019-03-20T17:55:49.827Z,13.30
2019-03-20T17:58:22.149Z,13.30
2019-03-20T18:00:54.894Z,13.30
2019-03-20T18:03:26.588Z,13.31
2019-03-20T18:05:58.119Z,13.31
2019-03-20T18:08:29.656Z,13.32
2019-03-20T18:11:01.135Z,13.34
2019-03-20T18:13:32.492Z,13.35
2019-03-20T18:16:03.882Z,13.36
2019-03-20T18:18:35.114Z,13.36
2019-03-20T18:21:06.392Z,13.38
2019-03-20T18:23:40.745Z,13.40
2019-03-20T18:26:12.151Z,13.40
2019-03-20T18:28:43.420Z,13.41
2019-03-20T18:31:14.689Z,13.40
2019-03-20T18:33:46.427Z,13.39
2019-03-20T18:36:19.404Z,13.41
2019-03-20T18:38:50.711Z,13.39
2019-03-20T18:41:21.975Z,13.39
2019-03-20T18:43:53.193Z,13.39
2019-03-20T18:46:24.411Z,13.36
2019-03-20T18:48:55.614Z,13.32
2019-03-20T18:51:26.846Z,13.27
2019-03-20T18:53:58.154Z,13.25
2019-03-20T18:56:29.462Z,13.23
2019-03-20T18:59:02.773Z,13.16
2019-03-20T19:01:33.750Z,13.13
2019-03-20T19:04:04.928Z,13.10
2019-03-20T19:06:36.174Z,13.09
2019-03-20T19:09:09.902Z,13.07
2019-03-20T19:11:41.244Z,13.03
2019-03-20T19:14:12.807Z,12.99
2019-03-20T19:16:45.059Z,12.96
2019-03-20T19:19:16.426Z,12.95
2019-03-20T19:21:54.549Z,12.90
2019-03-20T19:27:56.114Z,12.82
2019-03-20T19:30:40.234Z,12.79
2019-03-20T19:33:21.512Z,12.78
2019-03-20T19:35:52.721Z,12.76
2019-03-20T19:38:34.250Z,12.73
2019-03-20T19:40:56.832Z,12.70
2019-03-20T19:43:28.112Z,12.69
2019-03-20T19:45:59.457Z,12.68
2019-03-20T19:48:30.858Z,12.63
2019-03-20T19:51:02.250Z,12.60
2019-03-20T19:53:33.509Z,12.58
2019-03-20T19:56:05.729Z,12.59
2019-03-20T19:58:36.976Z,12.58
2019-03-20T20:01:08.246Z,12.57
2019-03-20T20:03:39.553Z,12.58
2019-03-20T20:06:11.429Z,12.57
2019-03-20T20:08:42.884Z,12.57
2019-03-20T20:11:14.257Z,12.57
2019-03-20T20:13:47.210Z,12.54
2019-03-20T20:16:18.542Z,12.54
2019-03-20T20:18:50.815Z,12.53
2019-03-20T20:21:22.156Z,12.52
2019-03-20T20:23:53.409Z,12.50
2019-03-20T20:26:25.702Z,12.51
2019-03-20T20:28:57.033Z,12.53
2019-03-20T20:31:28.286Z,12.52
2019-03-20T20:33:59.545Z,12.51
2019-03-20T20:36:30.747Z,12.51
2019-03-20T20:39:02.025Z,12.50
2019-03-20T20:41:34.593Z,12.51
2019-03-20T20:44:06.876Z,12.52
2019-03-20T20:46:39.207Z,12.52
2019-03-20T20:49:10.643Z,12.49
2019-03-20T20:51:41.805Z,12.43
2019-03-20T20:54:13.194Z,12.38
2019-03-20T20:56:44.464Z,12.38
2019-03-20T20:59:15.643Z,12.38
2019-03-20T21:01:46.939Z,12.37
2019-03-20T21:04:18.155Z,12.36
2019-03-20T21:06:49.530Z,12.34
2019-03-20T21:09:21.082Z,12.34
2019-03-20T21:11:52.791Z,12.33
2019-03-20T21:14:24.150Z,12.32
2019-03-20T21:16:55.999Z,12.32
2019-03-20T21:19:44.575Z,12.31
2019-03-20T21:22:58.622Z,12.32
2019-03-20T21:25:30.440Z,12.33
2019-03-20T21:28:57.899Z,12.33
2019-03-20T21:31:41.796Z,12.35
2019-03-20T21:35:06.368Z,12.37
2019-03-20T21:38:03.526Z,12.39
2019-03-20T21:41:17.823Z,12.44
2019-03-20T21:44:33.327Z,12.47
2019-03-20T21:47:30.004Z,12.49
2019-03-20T21:50:32.251Z,12.53
2019-03-20T21:53:04.026Z,12.57
2019-03-20T21:56:01.171Z,12.56
2019-03-20T21:58:46.373Z,12.57
2019-03-20T22:01:57.247Z,12.58
2019-03-20T22:04:29.077Z,12.57
2019-03-20T22:07:17.745Z,12.51
2019-03-20T22:10:25.328Z,12.47
2019-03-20T22:13:26.724Z,12.44
2019-03-20T22:16:57.292Z,12.38
2019-03-20T22:19:56.975Z,12.35
2019-03-20T22:22:54.711Z,12.33
2019-03-20T22:25:41.447Z,12.33
2019-03-20T22:28:51.249Z,12.35
2019-03-20T22:31:23.250Z,12.33
2019-03-20T22:34:43.496Z,12.33
2019-03-20T22:37:15.879Z,12.33
2019-03-20T22:40:34.324Z,12.32
2019-03-20T22:43:30.329Z,12.31
2019-03-20T22:46:44.023Z,12.30
2019-03-20T22:49:51.732Z,12.32
2019-03-20T22:52:52.060Z,12.33
2019-03-20T22:55:56.205Z,12.34
2019-03-20T22:58:46.955Z,12.36
2019-03-20T23:01:41.759Z,12.38
2019-03-20T23:04:17.967Z,12.41
2019-03-20T23:06:49.824Z,12.42
2019-03-20T23:09:21.524Z,12.42
2019-03-20T23:11:54.590Z,12.43
2019-03-20T23:14:26.647Z,12.43
2019-03-20T23:16:58.358Z,12.43
2019-03-20T23:19:30.261Z,12.44
2019-03-20T23:22:02.067Z,12.46
2019-03-20T23:24:34.738Z,12.47
2019-03-20T23:27:09.030Z,12.48
2019-03-20T23:29:41.914Z,12.49
2019-03-20T23:32:13.687Z,12.50
2019-03-20T23:34:45.473Z,12.51
2019-03-20T23:37:17.163Z,12.51
2019-03-20T23:39:48.949Z,12.51
2019-03-20T23:42:21.558Z,12.47
2019-03-20T23:44:53.328Z,12.42
2019-03-20T23:47:30.859Z,12.38
2019-03-20T23:50:03.621Z,12.34
2019-03-20T23:52:35.436Z,12.31
2019-03-20T23:55:08.969Z,12.26
2019-03-20T23:57:40.810Z,12.23
